Time;durP1;ratioP1;P1;durP2;ratioP2;P2;SDS_P1;SDS_P2;PMS_P1;PMS_P2;Temp;Humidity;BMP_temperature;BMP_pressure;BME280_temperature;BME280_humidity;BME280_pressure;Samples;Min_cycle;Max_cycle;Signal;HPM_P1;HPM_P2
2023/07/01 00:03:30;;;;;;;;;;;24.10;40.10;;;;;;21257674;27;19930;-57
2023/07/01 00:13:30;;;;;;;;;;;24.10;40.10;;;;;;21257811;27;19927;-56
2023/07/01 00:23:31;;;;;;;;;;;24.00;39.90;;;;;;21256925;27;19929;-56
2023/07/01 00:33:32;;;;;;;;;;;24.00;39.40;;;;;;21256038;27;20039;-56
2023/07/01 00:43:32;;;;;;;;;;;24.00;39.40;;;;;;21255372;27;19974;-56
2023/07/01 00:53:33;;;;;;;;;;;23.80;39.60;;;;;;21254619;27;19973;-56
2023/07/01 01:03:42;;;;;;;;;;;23.60;40.10;;;;;;21253600;27;20304;-58
2023/07/01 01:13:46;;;;;;;;;;;23.60;40.50;;;;;;21252509;27;19930;-56
2023/07/01 01:24:06;;;;;;;;;;;23.60;40.40;;;;;;21251439;27;19923;-55
2023/07/01 01:34:07;;;;;;;;;;;23.50;40.50;;;;;;21250024;27;19923;-56
2023/07/01 01:44:10;;;;;;;;;;;23.30;40.90;;;;;;21249514;27;20307;-57
2023/07/01 01:54:11;;;;;;;;;;;23.20;41.20;;;;;;21249125;27;20418;-56
2023/07/01 02:04:12;;;;;;;;;;;23.20;41.10;;;;;;21249607;27;19924;-56
2023/07/01 02:14:12;;;;;;;;;;;23.00;41.30;;;;;;21248220;28;19930;-55
2023/07/01 02:24:13;;;;;;;;;;;22.90;41.80;;;;;;21254451;27;19931;-56
2023/07/01 02:34:14;;;;;;;;;;;22.90;41.90;;;;;;21264531;27;20403;-56
2023/07/01 02:44:14;;;;;;;;;;;22.70;42.00;;;;;;21265266;27;20420;-56
2023/07/01 02:54:15;;;;;;;;;;;22.70;42.20;;;;;;21264499;27;19924;-55
2023/07/01 03:04:15;;;;;;;;;;;22.60;42.50;;;;;;21263293;27;19932;-56
2023/07/01 03:14:16;;;;;;;;;;;22.60;42.70;;;;;;21262622;27;19923;-56
2023/07/01 03:24:17;;;;;;;;;;;22.60;42.90;;;;;;21260114;27;19968;-55
2023/07/01 03:34:17;;;;;;;;;;;22.50;42.80;;;;;;21259545;27;19981;-56
2023/07/01 03:44:18;;;;;;;;;;;22.50;43.10;;;;;;21260148;27;19930;-56
2023/07/01 03:54:19;;;;;;;;;;;22.40;43.30;;;;;;21259419;27;20447;-55
2023/07/01 04:04:19;;;;;;;;;;;22.20;43.50;;;;;;21258539;27;19923;-55
2023/07/01 04:14:20;;;;;;;;;;;22.20;43.90;;;;;;21256535;27;19930;-57
2023/07/01 04:24:20;;;;;;;;;;;22.20;44.20;;;;;;21255698;27;20384;-57
2023/07/01 04:34:21;;;;;;;;;;;22.10;44.30;;;;;;21255861;27;20352;-55
2023/07/01 04:44:24;;;;;;;;;;;22.10;44.50;;;;;;21254496;27;19981;-56
2023/07/01 04:54:25;;;;;;;;;;;22.00;44.70;;;;;;21254073;27;19933;-56
2023/07/01 05:04:26;;;;;;;;;;;22.00;45.00;;;;;;21253461;27;19971;-55
2023/07/01 05:14:27;;;;;;;;;;;21.90;45.10;;;;;;21252787;27;19924;-57
2023/07/01 05:24:27;;;;;;;;;;;21.90;45.30;;;;;;21243239;27;19931;-56
2023/07/01 05:34:29;;;;;;;;;;;21.90;45.30;;;;;;21251779;27;19924;-56
2023/07/01 05:44:30;;;;;;;;;;;21.90;45.20;;;;;;21249632;27;19946;-56
2023/07/01 05:54:30;;;;;;;;;;;21.90;45.50;;;;;;21248454;27;19979;-55
2023/07/01 06:04:31;;;;;;;;;;;22.00;45.40;;;;;;21248956;27;20372;-56
2023/07/01 06:14:31;;;;;;;;;;;22.10;45.60;;;;;;21248964;27;19923;-55
2023/07/01 06:24:32;;;;;;;;;;;22.20;45.60;;;;;;21248390;28;20032;-56
2023/07/01 06:34:32;;;;;;;;;;;22.20;45.60;;;;;;21247204;28;19923;-55
2023/07/01 06:44:33;;;;;;;;;;;22.30;45.50;;;;;;21248277;28;19931;-54
2023/07/01 06:54:36;;;;;;;;;;;22.70;45.20;;;;;;21247920;28;19931;-56
2023/07/01 07:04:38;;;;;;;;;;;;;;;;;;21246589;28;20014;-56
2023/07/01 07:14:39;;;;;;;;;;;23.50;43.70;;;;;;21258888;27;19924;-55
2023/07/01 07:24:39;;;;;;;;;;;24.20;42.20;;;;;;21261039;27;19931;-56
2023/07/01 07:34:40;;;;;;;;;;;24.70;41.40;;;;;;21261051;27;19924;-55
2023/07/01 07:44:42;;;;;;;;;;;25.20;40.70;;;;;;21259680;27;19963;-57
2023/07/01 07:54:42;;;;;;;;;;;25.40;40.40;;;;;;21259275;27;20368;-57
2023/07/01 08:04:43;;;;;;;;;;;25.70;40.20;;;;;;21257904;27;19946;-56
2023/07/01 08:14:43;;;;;;;;;;;26.00;39.70;;;;;;21256870;27;19983;-55
2023/07/01 08:24:44;;;;;;;;;;;26.20;39.50;;;;;;21254936;27;19958;-57
2023/07/01 08:34:45;;;;;;;;;;;26.40;39.20;;;;;;21253220;27;20002;-57
2023/07/01 08:44:46;;;;;;;;;;;26.30;39.30;;;;;;21252273;27;19928;-56
2023/07/01 08:54:47;;;;;;;;;;;26.70;38.90;;;;;;21253938;27;19923;-55
2023/07/01 09:04:47;;;;;;;;;;;26.90;38.60;;;;;;21252768;27;20305;-58
2023/07/01 09:15:07;;;;;;;;;;;27.10;38.30;;;;;;21251093;27;19969;-57
2023/07/01 09:25:07;;;;;;;;;;;27.40;37.90;;;;;;21251340;27;19998;-58
2023/07/01 09:35:08;;;;;;;;;;;27.50;37.80;;;;;;21250965;27;19978;-56
2023/07/01 09:45:09;;;;;;;;;;;27.60;37.70;;;;;;21249915;27;19927;-57
2023/07/01 09:55:10;;;;;;;;;;;27.60;37.60;;;;;;21249925;27;19999;-54
2023/07/01 10:05:12;;;;;;;;;;;27.60;37.60;;;;;;21248526;27;20014;-56
2023/07/01 10:15:13;;;;;;;;;;;27.90;37.80;;;;;;21248556;27;19924;-57
2023/07/01 10:25:27;;;;;;;;;;;28.00;37.40;;;;;;21246883;28;19931;-56
2023/07/01 10:35:28;;;;;;;;;;;28.00;37.00;;;;;;21247213;28;20035;-57
2023/07/01 10:45:29;;;;;;;;;;;28.00;37.10;;;;;;21254909;27;19962;-57
2023/07/01 10:55:46;;;;;;;;;;;28.30;36.80;;;;;;21263678;27;19949;-57
2023/07/01 11:05:58;;;;;;;;;;;28.20;37.10;;;;;;21262790;27;20279;-58
2023/07/01 11:16:03;;;;;;;;;;;28.30;38.40;;;;;;21262633;27;19929;-56
2023/07/01 11:26:03;;;;;;;;;;;28.50;37.60;;;;;;21260967;27;20407;-57
2023/07/01 11:36:04;;;;;;;;;;;28.60;36.70;;;;;;21260834;27;19923;-57
2023/07/01 11:46:05;;;;;;;;;;;28.60;36.60;;;;;;21260384;27;19976;-57
2023/07/01 11:56:15;;;;;;;;;;;28.90;36.00;;;;;;21258234;27;19924;-57
2023/07/01 12:06:23;;;;;;;;;;;29.10;35.40;;;;;;21258603;27;19923;-57
2023/07/01 12:16:40;;;;;;;;;;;29.10;35.40;;;;;;21257696;27;20345;-56
2023/07/01 12:26:41;;;;;;;;;;;29.20;34.80;;;;;;21254632;27;19924;-57
2023/07/01 12:36:45;;;;;;;;;;;29.20;34.70;;;;;;21254853;27;20022;-56
2023/07/01 12:46:46;;;;;;;;;;;29.20;34.80;;;;;;21253415;27;19943;-55
2023/07/01 12:56:46;;;;;;;;;;;29.60;33.60;;;;;;21253102;27;20303;-57
2023/07/01 13:06:47;;;;;;;;;;;29.50;33.60;;;;;;21252936;27;19959;-57
2023/07/01 13:16:48;;;;;;;;;;;29.70;33.30;;;;;;21253615;27;19969;-57
2023/07/01 13:26:51;;;;;;;;;;;29.90;32.90;;;;;;21251581;27;20007;-55
2023/07/01 13:36:53;;;;;;;;;;;30.00;32.00;;;;;;21251599;27;20404;-56
2023/07/01 13:46:54;;;;;;;;;;;30.20;31.60;;;;;;21250799;27;20448;-55
2023/07/01 13:56:58;;;;;;;;;;;30.40;31.00;;;;;;21250000;27;20357;-56
2023/07/01 14:07:02;;;;;;;;;;;30.60;30.60;;;;;;21248190;27;19988;-55
2023/07/01 14:17:03;;;;;;;;;;;30.50;30.90;;;;;;21248915;27;19930;-57
2023/07/01 14:27:04;;;;;;;;;;;30.90;30.50;;;;;;21265554;27;20380;-55
2023/07/01 14:37:05;;;;;;;;;;;31.00;30.10;;;;;;21265871;27;19923;-56
2023/07/01 14:47:06;;;;;;;;;;;30.90;30.10;;;;;;21264900;27;19930;-56
2023/07/01 14:57:06;;;;;;;;;;;31.10;29.60;;;;;;21264064;27;19928;-55
2023/07/01 15:07:08;;;;;;;;;;;31.10;29.40;;;;;;21263291;27;19924;-57
2023/07/01 15:17:09;;;;;;;;;;;31.30;29.10;;;;;;21261146;27;19931;-56
2023/07/01 15:27:10;;;;;;;;;;;31.30;29.30;;;;;;21260776;27;20411;-57
2023/07/01 15:37:10;;;;;;;;;;;31.30;29.30;;;;;;21260941;27;19995;-56
2023/07/01 15:47:11;;;;;;;;;;;31.50;29.40;;;;;;21260271;27;19930;-55
2023/07/01 15:57:12;;;;;;;;;;;31.50;29.60;;;;;;21259271;27;19924;-55
2023/07/01 16:07:18;;;;;;;;;;;31.60;29.60;;;;;;21257593;27;19924;-56
2023/07/01 16:17:19;;;;;;;;;;;31.60;29.30;;;;;;21258038;27;20424;-55
2023/07/01 16:27:20;;;;;;;;;;;31.60;29.60;;;;;;21255743;27;19977;-55
2023/07/01 16:37:21;;;;;;;;;;;31.60;29.10;;;;;;21255249;27;19930;-56
2023/07/01 16:47:23;;;;;;;;;;;31.60;29.20;;;;;;21252629;27;19924;-56
2023/07/01 16:57:23;;;;;;;;;;;31.70;29.00;;;;;;21254419;27;19923;-57
2023/07/01 17:07:24;;;;;;;;;;;31.70;29.40;;;;;;21252841;27;20010;-56
2023/07/01 17:17:28;;;;;;;;;;;31.80;29.40;;;;;;21252186;27;20387;-56
2023/07/01 17:27:29;;;;;;;;;;;31.70;29.50;;;;;;21249737;27;19923;-55
2023/07/01 17:37:29;;;;;;;;;;;31.70;29.50;;;;;;21249720;27;19923;-56
2023/07/01 17:47:32;;;;;;;;;;;31.70;29.60;;;;;;21249262;27;20197;-57
2023/07/01 17:57:33;;;;;;;;;;;31.60;29.90;;;;;;21251015;27;20376;-57
2023/07/01 18:07:33;;;;;;;;;;;31.50;30.10;;;;;;21249832;27;19944;-56
2023/07/01 18:17:34;;;;;;;;;;;31.40;30.20;;;;;;21247745;27;19923;-56
2023/07/01 18:27:34;;;;;;;;;;;31.30;30.40;;;;;;21249062;28;19978;-55
2023/07/01 18:37:35;;;;;;;;;;;31.10;30.90;;;;;;21247778;28;19924;-57
2023/07/01 18:47:36;;;;;;;;;;;31.10;31.10;;;;;;21247637;28;19923;-57
2023/07/01 18:57:36;;;;;;;;;;;30.90;31.30;;;;;;21247276;28;20045;-58
2023/07/01 19:07:37;;;;;;;;;;;30.90;31.50;;;;;;21254788;27;19927;-56
2023/07/01 19:17:38;;;;;;;;;;;30.70;31.90;;;;;;21262409;27;20415;-56
2023/07/01 19:27:38;;;;;;;;;;;30.70;32.20;;;;;;21259459;27;19935;-56
2023/07/01 19:37:39;;;;;;;;;;;30.70;32.20;;;;;;21260994;27;19938;-55
2023/07/01 19:47:40;;;;;;;;;;;30.60;32.10;;;;;;21259985;27;19930;-56
2023/07/01 19:57:41;;;;;;;;;;;30.40;32.50;;;;;;21257964;27;19931;-56
2023/07/01 20:07:42;;;;;;;;;;;30.30;32.80;;;;;;21258459;27;20368;-56
2023/07/01 20:17:43;;;;;;;;;;;30.20;33.00;;;;;;21256532;27;19923;-57
2023/07/01 20:27:44;;;;;;;;;;;30.20;33.50;;;;;;21256745;27;19924;-56
2023/07/01 20:37:45;;;;;;;;;;;30.00;34.30;;;;;;21254739;27;19969;-55
2023/07/01 20:47:46;;;;;;;;;;;30.00;33.80;;;;;;21254940;27;19927;-55
2023/07/01 20:57:46;;;;;;;;;;;30.00;33.90;;;;;;21254281;27;19924;-57
2023/07/01 21:07:47;;;;;;;;;;;30.00;34.10;;;;;;21253668;27;19927;-57
2023/07/01 21:17:47;;;;;;;;;;;29.80;34.40;;;;;;21252644;27;19923;-56
2023/07/01 21:28:00;;;;;;;;;;;29.70;34.60;;;;;;21252114;27;19923;-55
2023/07/01 21:38:01;;;;;;;;;;;29.70;34.70;;;;;;21249810;27;19931;-56
2023/07/01 21:48:02;;;;;;;;;;;29.60;35.10;;;;;;21250137;27;19923;-56
2023/07/01 21:58:02;;;;;;;;;;;29.60;35.20;;;;;;21250077;27;19930;-57
2023/07/01 22:08:03;;;;;;;;;;;29.40;35.30;;;;;;21249584;27;19946;-55
2023/07/01 22:18:04;;;;;;;;;;;29.20;35.40;;;;;;21248833;27;20039;-57
2023/07/01 22:28:04;;;;;;;;;;;29.00;35.90;;;;;;21247685;28;19999;-58
2023/07/01 22:38:05;;;;;;;;;;;28.80;37.30;;;;;;21249895;27;19923;-56
2023/07/01 22:48:05;;;;;;;;;;;28.60;38.60;;;;;;21263690;27;19923;-56
2023/07/01 22:58:06;;;;;;;;;;;28.50;39.90;;;;;;21262965;27;19923;-56
2023/07/01 23:08:07;;;;;;;;;;;28.20;40.60;;;;;;21263291;27;20297;-57
2023/07/01 23:18:09;;;;;;;;;;;28.10;41.60;;;;;;21262162;27;20269;-56
2023/07/01 23:28:10;;;;;;;;;;;27.80;42.20;;;;;;21260939;27;19923;-57
2023/07/01 23:38:10;;;;;;;;;;;27.60;42.60;;;;;;21259980;27;19930;-56
2023/07/01 23:48:11;;;;;;;;;;;27.30;43.00;;;;;;21259195;27;20384;-57
2023/07/01 23:58:12;;;;;;;;;;;27.20;42.70;;;;;;21259716;27;19923;-56
